createdAt,value
2023-12-09T00:00:44.913Z,31.60
2023-12-09T00:03:13.080Z,32.10
2023-12-09T00:05:42.608Z,31.50
2023-12-09T00:08:10.684Z,31.90
2023-12-09T00:10:38.839Z,32.40
2023-12-09T00:13:06.953Z,32.60
2023-12-09T00:15:35.093Z,32.70
2023-12-09T00:18:04.392Z,32.60
2023-12-09T00:20:32.548Z,32.30
2023-12-09T00:23:02.009Z,32.10
2023-12-09T00:25:30.109Z,31.90
2023-12-09T00:27:58.306Z,32.40
2023-12-09T00:30:26.557Z,31.70
2023-12-09T00:32:54.845Z,31.60
2023-12-09T00:35:22.999Z,31.50
2023-12-09T00:37:51.263Z,31.50
2023-12-09T00:40:20.835Z,32.20
2023-12-09T00:42:48.900Z,32.60
2023-12-09T00:45:17.114Z,32.60
2023-12-09T00:47:45.382Z,32.60
2023-12-09T00:50:13.531Z,32.20
2023-12-09T00:52:41.740Z,32.00
2023-12-09T00:55:10.897Z,31.90
2023-12-09T00:57:40.407Z,31.90
2023-12-09T01:00:09.909Z,31.70
2023-12-09T01:02:40.149Z,31.50
2023-12-09T01:05:08.685Z,31.70
2023-12-09T01:07:36.825Z,31.40
2023-12-09T01:10:06.997Z,32.10
2023-12-09T01:12:35.149Z,32.40
2023-12-09T01:15:05.219Z,32.60
2023-12-09T01:17:33.338Z,32.70
2023-12-09T01:20:01.546Z,32.40
2023-12-09T01:22:30.007Z,32.20
2023-12-09T01:24:58.165Z,32.00
2023-12-09T01:27:26.289Z,31.90
2023-12-09T01:29:54.447Z,31.70
2023-12-09T01:32:24.163Z,31.60
2023-12-09T01:34:52.488Z,31.50
2023-12-09T01:37:20.589Z,31.40
2023-12-09T01:39:48.667Z,31.90
2023-12-09T01:42:16.720Z,32.30
2023-12-09T01:44:44.847Z,32.50
2023-12-09T01:47:13.016Z,32.70
2023-12-09T01:49:42.943Z,32.70
2023-12-09T01:52:11.203Z,32.60
2023-12-09T01:54:39.350Z,32.50
2023-12-09T01:57:07.549Z,32.20
2023-12-09T01:59:35.656Z,32.00
2023-12-09T02:02:03.966Z,31.90
2023-12-09T02:04:32.497Z,31.80
2023-12-09T02:07:01.963Z,31.70
2023-12-09T02:09:36.418Z,31.60
2023-12-09T02:12:07.589Z,31.50
2023-12-09T02:14:38.684Z,31.70
2023-12-09T02:17:10.610Z,32.30
2023-12-09T02:19:38.696Z,32.60
2023-12-09T02:22:09.696Z,32.60
2023-12-09T02:24:39.215Z,32.60
2023-12-09T02:27:10.897Z,32.30
2023-12-09T02:29:43.519Z,32.10
2023-12-09T02:32:11.627Z,31.90
2023-12-09T02:34:40.722Z,31.80
2023-12-09T02:37:09.698Z,31.70
2023-12-09T02:39:39.713Z,31.60
2023-12-09T02:42:08.474Z,31.50
2023-12-09T02:44:36.629Z,31.50
2023-12-09T02:47:05.092Z,32.10
2023-12-09T02:49:33.368Z,32.60
2023-12-09T02:52:01.610Z,32.70
2023-12-09T02:54:29.733Z,32.60
2023-12-09T02:56:59.234Z,32.30
2023-12-09T02:59:28.830Z,32.20
2023-12-09T03:01:56.972Z,31.90
2023-12-09T03:04:25.061Z,31.80
2023-12-09T03:06:53.355Z,31.60
2023-12-09T03:09:21.488Z,31.50
2023-12-09T03:11:49.621Z,31.50
2023-12-09T03:14:19.122Z,31.40
2023-12-09T03:16:47.229Z,32.00
2023-12-09T03:19:15.552Z,32.50
2023-12-09T03:21:43.722Z,32.50
2023-12-09T03:24:11.903Z,32.70
2023-12-09T03:26:40.061Z,32.40
2023-12-09T03:29:08.159Z,32.10
2023-12-09T03:31:41.770Z,32.00
2023-12-09T03:34:10.002Z,31.90
2023-12-09T03:36:38.162Z,31.70
2023-12-09T03:39:07.534Z,31.60
2023-12-09T03:41:35.674Z,31.50
2023-12-09T03:44:03.876Z,31.40
2023-12-09T03:46:31.984Z,31.80
2023-12-09T03:49:01.663Z,32.30
2023-12-09T03:51:29.949Z,32.60
2023-12-09T03:53:58.131Z,33.20
2023-12-09T03:56:26.240Z,32.60
2023-12-09T03:58:54.708Z,33.20
2023-12-09T04:01:25.967Z,32.60
2023-12-09T04:03:54.997Z,32.20
2023-12-09T04:06:24.704Z,32.10
2023-12-09T04:08:52.853Z,31.90
2023-12-09T04:11:21.000Z,31.80
2023-12-09T04:13:49.153Z,31.70
2023-12-09T04:16:17.231Z,31.50
2023-12-09T04:18:44.434Z,31.50
2023-12-09T04:21:12.579Z,31.50
2023-12-09T04:23:42.498Z,32.20
2023-12-09T04:26:10.595Z,32.50
2023-12-09T04:28:38.703Z,33.30
2023-12-09T04:31:06.872Z,32.80
2023-12-09T04:33:35.431Z,32.30
2023-12-09T04:36:04.241Z,32.00
2023-12-09T04:38:32.389Z,31.90
2023-12-09T04:41:02.904Z,31.80
2023-12-09T04:43:31.031Z,31.70
2023-12-09T04:45:59.129Z,31.60
2023-12-09T04:48:27.516Z,31.50
2023-12-09T04:50:55.785Z,31.30
2023-12-09T04:53:23.915Z,32.00
2023-12-09T04:55:52.054Z,32.40
2023-12-09T04:58:21.514Z,32.60
2023-12-09T05:00:49.627Z,32.60
2023-12-09T05:03:17.895Z,32.40
2023-12-09T05:05:46.142Z,32.20
2023-12-09T05:08:14.251Z,32.00
2023-12-09T05:10:42.361Z,31.90
2023-12-09T05:13:10.448Z,31.70
2023-12-09T05:15:39.958Z,31.60
2023-12-09T05:18:08.188Z,31.50
2023-12-09T05:20:36.691Z,31.40
2023-12-09T05:23:07.202Z,31.70
2023-12-09T05:25:36.702Z,32.30
2023-12-09T05:28:04.903Z,32.60
2023-12-09T05:30:33.043Z,32.60
2023-12-09T05:33:02.925Z,32.50
2023-12-09T05:35:31.140Z,32.30
2023-12-09T05:37:59.242Z,32.00
2023-12-09T05:40:27.348Z,31.90
2023-12-09T05:42:55.446Z,31.70
2023-12-09T05:45:23.565Z,31.60
2023-12-09T05:47:51.742Z,31.50
2023-12-09T05:50:24.766Z,31.40
2023-12-09T05:52:52.875Z,31.40
2023-12-09T05:55:20.979Z,32.20
2023-12-09T05:57:49.077Z,32.50
2023-12-09T06:00:17.742Z,32.60
2023-12-09T06:02:45.864Z,32.60
2023-12-09T06:05:14.083Z,32.60
2023-12-09T06:07:43.568Z,32.60
2023-12-09T06:10:12.040Z,32.30
2023-12-09T06:12:43.366Z,32.20
2023-12-09T06:15:13.294Z,31.90
2023-12-09T06:17:41.593Z,31.90
2023-12-09T06:20:10.819Z,31.70
2023-12-09T06:22:38.940Z,31.60
2023-12-09T06:25:09.957Z,31.50
2023-12-09T06:27:38.439Z,31.40
2023-12-09T06:30:08.034Z,32.10
2023-12-09T06:32:36.197Z,32.40
2023-12-09T06:35:04.416Z,32.50
2023-12-09T06:37:32.572Z,32.60
2023-12-09T06:40:00.703Z,32.30
2023-12-09T06:42:31.125Z,32.10
2023-12-09T06:44:59.435Z,32.00
2023-12-09T06:47:27.944Z,31.80
2023-12-09T06:49:56.248Z,31.70
2023-12-09T06:52:24.663Z,31.60
2023-12-09T06:54:52.907Z,31.60
2023-12-09T06:57:21.074Z,31.30
2023-12-09T06:59:50.672Z,31.90
2023-12-09T07:02:18.794Z,32.40
2023-12-09T07:04:46.985Z,32.50
2023-12-09T07:07:21.462Z,32.60
2023-12-09T07:09:50.460Z,32.50
2023-12-09T07:12:18.579Z,32.10
2023-12-09T07:14:46.704Z,32.00
2023-12-09T07:17:16.212Z,31.90
2023-12-09T07:19:44.556Z,32.30
2023-12-09T07:22:12.707Z,31.60
2023-12-09T07:24:40.904Z,31.50
2023-12-09T07:27:09.077Z,31.40
2023-12-09T07:29:37.477Z,31.70
2023-12-09T07:32:06.224Z,32.30
2023-12-09T07:34:36.031Z,32.60
2023-12-09T07:37:04.451Z,32.60
2023-12-09T07:39:33.063Z,32.60
2023-12-09T07:42:00.278Z,32.30
2023-12-09T07:44:28.419Z,32.10
2023-12-09T07:46:57.108Z,31.90
2023-12-09T07:49:25.374Z,31.80
2023-12-09T07:51:54.938Z,31.60
2023-12-09T07:54:23.058Z,31.50
2023-12-09T07:56:51.611Z,31.40
2023-12-09T07:59:19.738Z,31.30
2023-12-09T08:01:47.843Z,32.10
2023-12-09T08:04:16.151Z,32.50
2023-12-09T08:06:44.341Z,32.60
2023-12-09T08:09:13.871Z,32.60
2023-12-09T08:11:41.980Z,32.60
2023-12-09T08:14:11.220Z,32.60
2023-12-09T08:16:39.591Z,32.30
2023-12-09T08:19:07.743Z,32.00
2023-12-09T08:21:37.968Z,32.50
2023-12-09T08:24:06.671Z,31.80
2023-12-09T08:26:36.241Z,31.70
2023-12-09T08:29:05.565Z,31.50
2023-12-09T08:31:33.667Z,31.50
2023-12-09T08:34:01.864Z,31.40
2023-12-09T08:36:30.056Z,31.90
2023-12-09T08:38:59.774Z,32.40
2023-12-09T08:41:30.612Z,32.50
2023-12-09T08:44:00.442Z,32.70
2023-12-09T08:46:28.558Z,32.50
2023-12-09T08:48:56.844Z,32.10
2023-12-09T08:51:25.141Z,31.90
2023-12-09T08:53:53.383Z,31.80
2023-12-09T08:56:21.527Z,31.70
2023-12-09T08:58:49.673Z,31.60
2023-12-09T09:01:19.622Z,31.50
2023-12-09T09:03:47.846Z,31.40
2023-12-09T09:06:16.015Z,31.70
2023-12-09T09:08:44.438Z,32.30
2023-12-09T09:11:13.490Z,32.50
2023-12-09T09:13:41.595Z,32.50
2023-12-09T09:16:10.088Z,32.60
2023-12-09T09:18:39.717Z,32.20
2023-12-09T09:21:08.132Z,31.90
2023-12-09T09:23:36.753Z,31.80
2023-12-09T09:26:05.831Z,31.70
2023-12-09T09:28:33.971Z,31.60
2023-12-09T09:31:02.111Z,31.50
2023-12-09T09:33:31.858Z,31.40
2023-12-09T09:36:01.749Z,31.30
2023-12-09T09:38:29.890Z,32.10
2023-12-09T09:40:58.133Z,32.40
2023-12-09T09:43:27.484Z,32.60
2023-12-09T09:45:55.722Z,32.50
2023-12-09T09:48:26.060Z,32.20
2023-12-09T09:50:54.621Z,32.00
2023-12-09T09:53:26.747Z,31.90
2023-12-09T09:55:54.837Z,31.70
2023-12-09T09:58:23.073Z,31.60
2023-12-09T10:00:53.443Z,31.50
2023-12-09T10:03:21.651Z,31.40
2023-12-09T10:05:50.004Z,31.30
2023-12-09T10:08:18.090Z,31.90
2023-12-09T10:10:47.515Z,32.40
2023-12-09T10:13:15.972Z,32.50
2023-12-09T10:15:44.099Z,32.60
2023-12-09T10:18:14.484Z,32.60
2023-12-09T10:20:42.849Z,32.60
2023-12-09T10:23:10.912Z,32.30
2023-12-09T10:25:39.011Z,31.90
2023-12-09T10:28:10.791Z,31.80
2023-12-09T10:30:39.508Z,31.70
2023-12-09T10:33:07.780Z,31.60
2023-12-09T10:35:36.412Z,31.50
2023-12-09T10:38:06.308Z,31.30
2023-12-09T10:40:34.579Z,31.30
2023-12-09T10:43:04.030Z,31.70
2023-12-09T10:45:33.796Z,32.20
2023-12-09T10:48:02.151Z,32.50
2023-12-09T10:50:30.341Z,32.60
2023-12-09T10:52:58.419Z,32.50
2023-12-09T10:55:26.512Z,32.00
2023-12-09T10:57:54.624Z,31.90
2023-12-09T11:00:22.847Z,31.80
2023-12-09T11:02:52.334Z,31.60
2023-12-09T11:05:20.662Z,31.40
2023-12-09T11:07:49.241Z,31.40
2023-12-09T11:10:17.347Z,31.30
2023-12-09T11:12:46.226Z,31.30
2023-12-09T11:15:23.549Z,32.10
2023-12-09T11:17:55.203Z,32.50
2023-12-09T11:20:24.703Z,32.50
2023-12-09T11:22:52.890Z,32.50
2023-12-09T11:25:26.557Z,32.00
2023-12-09T11:27:55.012Z,31.90
2023-12-09T11:30:34.806Z,31.70
2023-12-09T11:33:04.923Z,31.60
2023-12-09T11:35:34.030Z,31.40
2023-12-09T11:38:02.220Z,31.40
2023-12-09T11:40:30.960Z,31.30
2023-12-09T11:42:59.294Z,31.20
2023-12-09T11:45:28.487Z,32.00
2023-12-09T11:47:58.154Z,32.40
2023-12-09T11:50:29.041Z,32.50
2023-12-09T11:52:58.120Z,32.40
2023-12-09T11:55:26.503Z,32.10
2023-12-09T11:57:54.581Z,31.80
2023-12-09T12:00:22.856Z,31.70
2023-12-09T12:02:51.272Z,31.50
2023-12-09T12:05:19.401Z,31.50
2023-12-09T12:07:48.896Z,31.40
2023-12-09T12:10:17.121Z,31.30
2023-12-09T12:12:45.840Z,31.10
2023-12-09T12:15:14.228Z,31.90
2023-12-09T12:17:42.967Z,32.30
2023-12-09T12:20:12.789Z,32.50
2023-12-09T12:22:41.612Z,32.50
2023-12-09T12:25:11.572Z,32.30
2023-12-09T12:27:46.551Z,32.50
2023-12-09T12:30:15.664Z,32.30
2023-12-09T12:32:44.566Z,31.90
2023-12-09T12:35:13.027Z,31.70
2023-12-09T12:37:41.673Z,31.60
2023-12-09T12:40:12.489Z,31.50
2023-12-09T12:42:40.789Z,31.30
2023-12-09T12:45:17.514Z,31.30
2023-12-09T12:47:46.034Z,31.20
2023-12-09T12:50:14.327Z,31.70
2023-12-09T12:52:42.508Z,32.20
2023-12-09T12:55:13.773Z,32.40
2023-12-09T12:57:41.957Z,32.50
2023-12-09T13:00:13.107Z,32.40
2023-12-09T13:02:41.392Z,32.00
2023-12-09T13:05:09.754Z,31.80
2023-12-09T13:07:37.835Z,31.70
2023-12-09T13:10:06.861Z,31.50
2023-12-09T13:12:36.387Z,31.40
2023-12-09T13:15:05.524Z,31.30
2023-12-09T13:17:33.666Z,31.20
2023-12-09T13:20:01.862Z,31.40
2023-12-09T13:22:30.179Z,32.20
2023-12-09T13:24:58.441Z,32.50
2023-12-09T13:27:26.550Z,32.50
2023-12-09T13:29:56.022Z,32.40
2023-12-09T13:32:24.104Z,32.00
2023-12-09T13:34:52.266Z,31.80
2023-12-09T13:37:20.331Z,31.70
2023-12-09T13:39:49.361Z,31.70
2023-12-09T13:42:17.561Z,31.50
2023-12-09T13:44:45.637Z,31.40
2023-12-09T13:47:15.907Z,31.30
2023-12-09T13:49:44.146Z,31.10
2023-12-09T13:52:12.261Z,32.00
2023-12-09T13:54:40.832Z,32.40
2023-12-09T13:57:09.851Z,32.50
2023-12-09T13:59:37.969Z,32.50
2023-12-09T14:02:06.323Z,32.20
2023-12-09T14:04:36.441Z,31.90
2023-12-09T14:07:03.809Z,31.80
2023-12-09T14:09:32.000Z,31.70
2023-12-09T14:12:00.236Z,31.50
2023-12-09T14:14:29.111Z,31.50
2023-12-09T14:16:57.225Z,31.30
2023-12-09T14:19:26.120Z,31.30
2023-12-09T14:21:55.812Z,31.70
2023-12-09T14:24:23.930Z,32.30
2023-12-09T14:26:52.492Z,32.40
2023-12-09T14:29:20.553Z,32.50
2023-12-09T14:31:48.650Z,32.50
2023-12-09T14:34:16.874Z,32.40
2023-12-09T14:36:45.118Z,32.30
2023-12-09T14:39:15.889Z,32.10
2023-12-09T14:41:43.994Z,31.80
2023-12-09T14:44:12.111Z,31.70
2023-12-09T14:46:40.282Z,31.60
2023-12-09T14:49:08.621Z,31.50
2023-12-09T14:51:43.135Z,31.40
2023-12-09T14:54:16.523Z,31.30
2023-12-09T14:56:46.509Z,31.60
2023-12-09T14:59:14.745Z,32.10
2023-12-09T15:01:42.898Z,32.40
2023-12-09T15:04:11.276Z,32.50
2023-12-09T15:06:40.084Z,32.40
2023-12-09T15:09:11.258Z,32.10
2023-12-09T15:11:43.528Z,31.90
2023-12-09T15:14:12.917Z,31.70
2023-12-09T15:16:40.996Z,31.60
2023-12-09T15:19:09.297Z,31.50
2023-12-09T15:21:37.481Z,31.40
2023-12-09T15:24:07.216Z,31.30
2023-12-09T15:26:36.268Z,31.20
2023-12-09T15:29:05.798Z,32.00
2023-12-09T15:31:33.935Z,32.40
2023-12-09T15:34:02.240Z,32.50
2023-12-09T15:36:30.625Z,32.50
2023-12-09T15:38:58.969Z,32.20
2023-12-09T15:41:27.154Z,31.90
2023-12-09T15:43:55.320Z,31.80
2023-12-09T15:46:24.770Z,31.70
2023-12-09T15:48:53.000Z,31.50
2023-12-09T15:51:21.166Z,31.50
2023-12-09T15:53:49.331Z,31.40
2023-12-09T15:56:17.463Z,31.20
2023-12-09T15:58:45.540Z,31.90
2023-12-09T16:01:13.867Z,32.30
2023-12-09T16:03:43.644Z,32.50
2023-12-09T16:06:11.963Z,32.50
2023-12-09T16:08:40.353Z,32.40
2023-12-09T16:11:08.440Z,32.00
2023-12-09T16:13:36.712Z,31.80
2023-12-09T16:16:08.232Z,31.60
2023-12-09T16:18:36.582Z,31.60
2023-12-09T16:21:06.618Z,31.40
2023-12-09T16:23:34.864Z,31.40
2023-12-09T16:26:03.051Z,31.30
2023-12-09T16:28:31.197Z,31.60
2023-12-09T16:30:59.378Z,32.20
2023-12-09T16:33:27.883Z,32.40
2023-12-09T16:35:56.124Z,32.60
2023-12-09T16:38:25.723Z,32.50
2023-12-09T16:40:53.899Z,32.50
2023-12-09T16:43:22.143Z,32.50
2023-12-09T16:45:50.340Z,32.20
2023-12-09T16:48:18.673Z,31.90
2023-12-09T16:50:47.554Z,31.70
2023-12-09T16:53:15.715Z,31.60
2023-12-09T16:55:45.350Z,31.50
2023-12-09T16:58:13.931Z,31.40
2023-12-09T17:00:42.116Z,31.40
2023-12-09T17:03:10.900Z,31.30
2023-12-09T17:05:39.829Z,31.90
2023-12-09T17:08:08.061Z,32.30
2023-12-09T17:10:36.187Z,32.50
2023-12-09T17:13:06.262Z,32.50
2023-12-09T17:15:34.529Z,32.20
2023-12-09T17:18:02.980Z,31.90
2023-12-09T17:20:31.141Z,31.80
2023-12-09T17:22:59.326Z,31.70
2023-12-09T17:25:27.448Z,31.50
2023-12-09T17:27:55.556Z,31.40
2023-12-09T17:30:25.072Z,31.30
2023-12-09T17:32:53.265Z,31.20
2023-12-09T17:35:23.896Z,31.90
2023-12-09T17:37:53.003Z,32.30
2023-12-09T17:40:21.278Z,32.50
2023-12-09T17:42:49.438Z,32.50
2023-12-09T17:45:18.264Z,32.30
2023-12-09T17:47:48.218Z,32.00
2023-12-09T17:50:17.340Z,31.80
2023-12-09T17:52:45.585Z,31.70
2023-12-09T17:55:14.134Z,31.50
2023-12-09T17:57:42.333Z,31.40
2023-12-09T18:00:12.732Z,31.30
2023-12-09T18:02:40.858Z,31.20
2023-12-09T18:05:10.868Z,31.60
2023-12-09T18:07:39.015Z,32.10
2023-12-09T18:10:10.542Z,32.40
2023-12-09T18:12:38.771Z,32.50
2023-12-09T18:15:08.360Z,32.50
2023-12-09T18:17:36.692Z,32.10
2023-12-09T18:20:05.522Z,31.90
2023-12-09T18:22:35.121Z,31.70
2023-12-09T18:25:03.306Z,31.50
2023-12-09T18:27:32.721Z,31.50
2023-12-09T18:30:01.079Z,31.40
2023-12-09T18:32:29.222Z,31.30
2023-12-09T18:34:58.932Z,31.30
2023-12-09T18:37:27.052Z,32.10
2023-12-09T18:39:56.597Z,32.30
2023-12-09T18:42:26.154Z,32.50
2023-12-09T18:44:54.466Z,32.50
2023-12-09T18:47:22.757Z,32.50
2023-12-09T18:49:52.709Z,32.50
2023-12-09T18:52:20.953Z,32.10
2023-12-09T18:54:49.294Z,31.90
2023-12-09T18:57:18.948Z,31.80
2023-12-09T18:59:47.217Z,31.60
2023-12-09T19:02:15.817Z,32.10
2023-12-09T19:04:44.895Z,31.40
2023-12-09T19:07:13.397Z,31.30
2023-12-09T19:09:43.222Z,31.20
2023-12-09T19:12:12.258Z,32.00
2023-12-09T19:14:42.279Z,32.30
2023-12-09T19:17:10.412Z,32.50
2023-12-09T19:19:38.873Z,32.60
2023-12-09T19:22:07.170Z,32.30
2023-12-09T19:24:35.871Z,32.00
2023-12-09T19:27:05.193Z,31.80
2023-12-09T19:29:33.791Z,31.70
2023-12-09T19:32:03.979Z,31.60
2023-12-09T19:34:32.369Z,31.50
2023-12-09T19:37:01.314Z,31.30
2023-12-09T19:39:29.619Z,31.30
2023-12-09T19:41:57.851Z,31.70
2023-12-09T19:44:26.143Z,32.80
2023-12-09T19:46:54.737Z,32.50
2023-12-09T19:49:26.067Z,32.50
2023-12-09T19:51:55.482Z,32.40
2023-12-09T19:54:24.780Z,32.10
2023-12-09T19:56:54.053Z,31.80
2023-12-09T19:59:23.125Z,31.70
2023-12-09T20:01:51.321Z,31.60
2023-12-09T20:04:21.505Z,31.50
2023-12-09T20:06:51.959Z,31.50
2023-12-09T20:09:20.869Z,31.30
2023-12-09T20:11:50.125Z,31.50
2023-12-09T20:14:18.344Z,32.10
2023-12-09T20:16:46.565Z,32.30
2023-12-09T20:19:14.835Z,32.50
2023-12-09T20:21:43.076Z,32.50
2023-12-09T20:24:12.867Z,32.10
2023-12-09T20:26:41.099Z,31.90
2023-12-09T20:29:09.362Z,31.80
2023-12-09T20:31:37.549Z,31.60
2023-12-09T20:34:05.870Z,31.50
2023-12-09T20:36:34.531Z,31.40
2023-12-09T20:39:02.831Z,31.30
2023-12-09T20:41:32.550Z,31.10
2023-12-09T20:44:01.515Z,31.90
2023-12-09T20:46:29.837Z,32.30
2023-12-09T20:48:58.131Z,32.50
2023-12-09T20:51:26.404Z,32.50
2023-12-09T20:53:54.752Z,32.50
2023-12-09T20:56:22.992Z,32.50
2023-12-09T20:58:52.586Z,32.20
2023-12-09T21:01:20.917Z,32.00
2023-12-09T21:03:49.276Z,31.80
2023-12-09T21:06:18.280Z,31.60
2023-12-09T21:08:46.536Z,31.50
2023-12-09T21:11:15.918Z,31.50
2023-12-09T21:13:44.192Z,31.30
2023-12-09T21:16:13.833Z,31.20
2023-12-09T21:18:42.067Z,31.80
2023-12-09T21:21:10.262Z,32.20
2023-12-09T21:23:38.395Z,32.50
2023-12-09T21:26:07.333Z,32.60
2023-12-09T21:28:35.469Z,32.50
2023-12-09T21:31:04.056Z,32.00
2023-12-09T21:33:33.832Z,31.90
2023-12-09T21:36:02.182Z,31.80
2023-12-09T21:38:30.537Z,31.60
2023-12-09T21:40:58.665Z,31.50
2023-12-09T21:43:26.846Z,31.30
2023-12-09T21:45:54.974Z,31.20
2023-12-09T21:48:23.482Z,31.50
2023-12-09T21:50:53.066Z,32.10
2023-12-09T21:53:21.172Z,32.40
2023-12-09T21:55:49.394Z,32.50
2023-12-09T21:58:17.522Z,32.50
2023-12-09T22:00:45.791Z,32.10
2023-12-09T22:03:14.480Z,31.90
2023-12-09T22:05:42.624Z,31.80
2023-12-09T22:08:12.083Z,31.60
2023-12-09T22:10:40.206Z,31.50
2023-12-09T22:13:08.571Z,31.40
2023-12-09T22:15:37.849Z,31.30
2023-12-09T22:18:06.462Z,31.30
2023-12-09T22:20:34.624Z,31.90
2023-12-09T22:23:02.726Z,32.30
2023-12-09T22:25:32.192Z,32.50
2023-12-09T22:28:00.333Z,32.50
2023-12-09T22:30:28.498Z,32.20
2023-12-09T22:32:56.814Z,32.00
2023-12-09T22:35:26.080Z,31.90
2023-12-09T22:37:54.236Z,31.70
2023-12-09T22:40:23.029Z,31.50
2023-12-09T22:42:53.221Z,31.40
2023-12-09T22:45:21.385Z,31.30
2023-12-09T22:47:49.739Z,31.20
2023-12-09T22:50:17.962Z,31.90
2023-12-09T22:52:47.328Z,32.20
2023-12-09T22:55:15.616Z,32.40
2023-12-09T22:57:43.753Z,32.50
2023-12-09T23:00:19.565Z,32.50
2023-12-09T23:02:48.072Z,32.50
2023-12-09T23:05:16.319Z,32.40
2023-12-09T23:07:44.434Z,32.00
2023-12-09T23:10:13.290Z,31.80
2023-12-09T23:12:41.488Z,31.70
2023-12-09T23:15:11.424Z,31.60
2023-12-09T23:17:40.988Z,31.50
2023-12-09T23:20:10.710Z,31.50
2023-12-09T23:22:38.793Z,31.20
2023-12-09T23:25:08.131Z,31.70
2023-12-09T23:27:36.308Z,32.20
2023-12-09T23:30:04.785Z,32.40
2023-12-09T23:32:33.203Z,32.50
2023-12-09T23:35:02.873Z,32.50
2023-12-09T23:37:30.963Z,32.10
2023-12-09T23:39:59.065Z,31.90
2023-12-09T23:42:27.432Z,31.70
2023-12-09T23:44:55.709Z,31.60
2023-12-09T23:47:23.877Z,31.50
2023-12-09T23:49:51.987Z,31.30
2023-12-09T23:52:21.439Z,31.30
2023-12-09T23:54:49.625Z,31.20
2023-12-09T23:57:17.790Z,32.60
2023-12-09T23:59:45.929Z,32.40
